Latest Weather Observations for Frankston (Ballam Park)

IDV60901

Issued at 3:31 pm EST Thursday 25 April 2024 (issued every 10 minutes, with the page automatically refreshed every 10 minutes)

About weather observations | Map of Melbourne area stations | Latest observations for Melbourne area | Other Formats
Station Details ID: 086388 Name: FRANKSTON (BALLAM PARK) Lat: -38.15 Lon: 145.16 Height: 58.47 m
Data from the previous 72 hours. | See also: Recent months at Frankston (Ballam Park)
Date/Time
EST
Temp
°C
App
Temp
°C
Dew
Point
°C
Rel
Hum
%
Delta-T
°C
Wind Press
QNH
hPa
Press
MSL
hPa
Rain since
9am
mm
Dir  Spd
km/h
Gust
km/h
Spd
kts
Gust
kts
25/03:30pm 14.9 13.0 7.5 61 3.7 SW 7 17 4 9 1023.9 1023.9 0.2
25/03:00pm 15.1 13.0 8.3 64 3.4 WSW 9 19 5 10 1023.9 1023.9 0.2
25/02:30pm 14.9 13.3 8.8 67 3.1 SW 7 19 4 10 1024.0 1024.0 0.2
25/02:00pm 15.3 13.2 8.3 63 3.5 SW 9 20 5 11 1023.9 1023.9 0.2
25/01:30pm 15.6 13.9 9.7 68 3.1 WSW 9 28 5 15 1023.7 1023.7 0.2
25/01:00pm 15.2 13.9 10.0 71 2.7 W 7 20 4 11 1023.8 1023.8 0.2
25/12:30pm 14.3 12.6 9.9 75 2.3 W 9 24 5 13 1024.1 1024.1 0.2
25/12:00pm 15.3 13.9 9.4 68 3.0 WSW 7 19 4 10 1024.1 1024.1 0.2
25/11:30am 14.7 12.8 9.1 69 2.9 SW 9 22 5 12 1024.3 1024.3 0.2
25/11:00am 14.8 13.6 9.6 71 2.7 SW 6 13 3 7 1024.4 1024.4 0.2
25/10:30am 12.8 11.5 10.0 83 1.4 SSW 7 17 4 9 1024.4 1024.4 0.2
25/10:00am 14.2 12.9 9.8 75 2.3 SSW 7 15 4 8 1024.2 1024.2 0.0
25/09:30am 14.3 13.0 9.3 72 2.6 SSW 6 17 3 9 1024.0 1024.0 0.0
25/09:00am 13.6 12.6 10.4 81 1.7 SW 6 17 3 9 1023.9 1023.9 0.2
25/08:30am 13.0 12.0 10.4 84 1.4 W 6 13 3 7 1023.7 1023.7 0.2
25/08:00am 12.9 11.5 10.8 87 1.1 W 9 17 5 9 1023.3 1023.3 0.2
25/07:30am 12.4 11.4 11.0 91 0.7 W 7 15 4 8 1023.0 1023.0 0.2
25/07:00am 11.7 11.3 11.1 96 0.3 W 4 9 2 5 1022.8 1022.8 0.2
25/06:30am 12.0 11.4 11.7 98 0.2 W 6 13 3 7 1022.5 1022.5 0.2
25/06:00am 12.1 11.2 11.2 94 0.5 W 7 20 4 11 1022.3 1022.3 0.0
25/05:30am 12.1 11.2 11.3 95 0.4 W 7 17 4 9 1022.3 1022.3 0.0
25/05:00am 12.1 11.0 11.8 98 0.2 W 9 15 5 8 1022.2 1022.2 0.0
25/04:30am 11.7 10.0 11.2 97 0.3 W 11 20 6 11 1022.0 1022.0 0.0
25/04:00am 11.9 10.1 10.8 93 0.6 W 11 20 6 11 1022.1 1022.1 0.0
25/03:30am 11.9 9.7 10.8 93 0.6 W 13 26 7 14 1022.1 1022.1 0.0
25/03:00am 12.4 10.1 10.5 88 1.0 WNW 13 24 7 13 1022.1 1022.1 0.0
25/02:30am 12.4 10.4 10.3 87 1.1 WNW 11 22 6 12 1022.2 1022.2 0.0
25/02:00am 12.4 9.7 10.3 87 1.1 WNW 15 24 8 13 1022.6 1022.6 0.0
25/01:30am 12.4 10.4 10.0 85 1.2 W 11 28 6 15 1022.9 1022.9 0.0
25/01:00am 12.2 10.2 10.1 87 1.1 WNW 11 22 6 12 1022.9 1022.9 0.0
25/12:30am 12.2 9.9 10.3 88 1.0 WNW 13 28 7 15 1023.2 1023.2 0.0
25/12:00am 12.3 10.3 10.2 87 1.1 WNW 11 19 6 10 1023.3 1023.3 0.0
 
Date/Time
EST
Temp
°C
App
Temp
°C
Dew
Point
°C
Rel
Hum
%
Delta-T
°C
Wind Press
QNH
hPa
Press
MSL
hPa
Rain since
9am
mm
Dir  Spd
km/h
Gust
km/h
Spd
kts
Gust
kts
24/11:30pm 12.0 9.6 9.9 87 1.1 W 13 20 7 11 1023.4 1023.4 0.0
24/11:00pm 11.9 10.1 9.3 84 1.3 WNW 9 19 5 10 1023.6 1023.6 0.0
24/10:30pm 11.8 9.3 8.3 79 1.7 WNW 11 24 6 13 1023.7 1023.7 0.0
24/10:00pm 12.0 9.7 7.5 74 2.2 W 9 19 5 10 1023.7 1023.7 0.0
24/09:30pm 12.2 9.9 7.5 73 2.3 W 9 19 5 10 1023.7 1023.7 0.0
24/09:00pm 12.8 10.6 7.7 71 2.5 W 9 17 5 9 1023.6 1023.6 0.0
24/08:30pm 13.1 10.8 7.5 69 2.7 W 9 20 5 11 1023.5 1023.5 0.0
24/08:00pm 13.0 11.1 7.5 69 2.7 W 7 17 4 9 1023.4 1023.4 0.0
24/07:30pm 13.2 11.2 7.0 66 3.0 W 7 15 4 8 1023.3 1023.3 0.0
24/07:00pm 12.7 10.9 8.0 73 2.3 SW 7 17 4 9 1023.2 1023.2 0.0
24/06:30pm 13.5 11.6 6.6 63 3.3 SW 6 19 3 10 1023.0 1023.0 0.0
24/06:00pm 13.4 11.2 6.3 62 3.4 WSW 7 20 4 11 1022.7 1022.7 0.0
24/05:30pm 13.3 11.0 5.7 60 3.6 WSW 7 19 4 10 1022.5 1022.5 0.0
24/05:00pm 13.7 11.4 5.6 58 3.8 SW 7 17 4 9 1022.4 1022.4 0.0
24/04:30pm 13.4 11.0 7.2 66 3.0 SW 9 20 5 11 1022.5 1022.5 0.0
24/04:00pm 15.0 12.3 5.8 54 4.4 WSW 9 20 5 11 1022.4 1022.4 0.0
24/03:30pm 15.3 12.1 5.2 51 4.8 SW 11 28 6 15 1022.3 1022.3 0.0
24/03:00pm 15.2 12.0 5.1 51 4.8 SW 11 28 6 15 1022.1 1022.1 0.0
24/02:30pm 13.8 11.6 7.8 67 3.0 SW 9 26 5 14 1022.1 1022.1 0.0
24/02:00pm 15.2 13.0 8.0 62 3.6 SW 9 20 5 11 1021.9 1021.9 0.0
24/01:30pm 14.4 12.2 7.7 64 3.3 SW 9 28 5 15 1022.0 1022.0 0.0
24/01:00pm 15.2 13.0 7.7 61 3.7 WSW 9 20 5 11 1021.9 1021.9 0.0
24/12:30pm 13.0 10.6 7.0 67 2.9 SSW 9 17 5 9 1022.4 1022.4 0.0
24/12:00pm 15.4 13.1 7.4 59 4.0 SW 9 20 5 11 1022.3 1022.3 0.0
24/11:30am 14.3 12.4 7.4 63 3.4 SSW 7 17 4 9 1022.4 1022.4 0.0
24/11:00am 15.1 12.9 7.9 62 3.6 W 9 20 5 11 1022.0 1022.0 0.0
24/10:30am 13.3 10.8 6.6 64 3.2 SSW 9 17 5 9 1021.9 1021.9 0.0
24/10:00am 15.1 13.1 6.9 58 4.0 SW 7 15 4 8 1021.5 1021.5 0.0
24/09:30am 14.4 12.0 7.0 61 3.6 SW 9 19 5 10 1021.5 1021.5 0.0
24/09:00am 14.1 12.4 7.4 64 3.3 SW 6 13 3 7 1021.3 1021.3 12.4
24/08:30am 12.9 11.2 7.6 70 2.6 SW 6 13 3 7 1021.1 1021.1 12.4
24/08:00am 11.5 9.8 7.6 77 1.9 SW 6 11 3 6 1020.6 1020.6 12.4
24/07:30am 10.5 8.8 7.6 82 1.4 SW 6 17 3 9 1019.9 1019.9 12.4
24/07:00am 10.0 8.8 8.1 88 0.9 SW 4 11 2 6 1019.3 1019.3 12.4
24/06:30am 9.8 8.8 8.9 94 0.4 SSW 4 7 2 4 1019.0 1018.9 12.4
24/06:00am 10.1 9.3 9.5 96 0.3 SW 4 7 2 4 1018.5 1018.4 12.4
24/05:30am 10.7 9.4 9.9 95 0.4 SSW 7 20 4 11 1018.0 1017.9 12.4
24/05:00am 11.3 9.8 10.7 96 0.3 W 9 19 5 10 1017.7 1017.6 10.8
24/04:30am 11.8 8.5 9.7 87 1.1 W 17 32 9 17 1017.2 1017.1 10.0
24/04:00am 11.6 8.6 9.2 85 1.2 W 15 32 8 17 1016.4 1016.3 10.0
24/03:30am 11.7 8.4 9.4 86 1.2 W 17 33 9 18 1016.1 1016.0 10.0
24/03:00am 11.7 8.4 9.6 87 1.1 WNW 17 30 9 16 1015.9 1015.8 10.0
24/02:30am 11.9 8.3 10.0 88 1.0 WNW 19 33 10 18 1016.0 1015.9 10.0
24/02:00am 12.0 9.5 11.1 94 0.5 WNW 15 28 8 15 1015.7 1015.6 10.0
24/01:30am 11.9 10.3 11.6 98 0.2 WNW 11 24 6 13 1015.2 1015.1 10.0
24/01:00am 12.1 10.3 12.1 100 0.0 W 13 26 7 14 1014.9 1014.8 9.4
24/12:30am 12.3 10.6 12.3 100 0.0 W 13 30 7 16 1014.7 1014.6 8.4
24/12:00am 12.3 10.9 12.1 99 0.1 WSW 11 32 6 17 1014.4 1014.3 7.4
 
Date/Time
EST
Temp
°C
App
Temp
°C
Dew
Point
°C
Rel
Hum
%
Delta-T
°C
Wind Press
QNH
hPa
Press
MSL
hPa
Rain since
9am
mm
Dir  Spd
km/h
Gust
km/h
Spd
kts
Gust
kts
23/11:30pm 13.1 10.2 12.9 99 0.1 W 20 56 11 30 1013.8 1013.7 5.4
23/11:00pm 14.8 13.3 14.3 97 0.3 W 15 33 8 18 1013.1 1013.0 2.6
23/10:30pm 15.6 14.6 13.3 86 1.3 W 11 28 6 15 1012.8 1012.7 0.8
23/10:00pm 17.9 16.5 10.8 63 3.8 W 9 19 5 10 1012.4 1012.3 0.0
23/09:30pm 18.7 16.9 9.5 55 4.9 WSW 9 24 5 13 1012.1 1012.0 0.0
23/09:00pm 21.8 18.4 6.1 36 7.9 NNW 13 22 7 12 1010.7 1010.6 0.0
23/08:30pm 21.0 18.1 6.5 39 7.3 N 11 20 6 11 1010.1 1010.0 0.0
23/08:00pm 20.9 18.1 6.8 40 7.2 N 11 19 6 10 1010.5 1010.4 0.0
23/07:30pm 21.0 18.7 7.3 41 7.0 N 9 20 5 11 1010.9 1010.8 0.0
23/07:00pm 20.7 18.9 8.0 44 6.6 N 7 15 4 8 1011.4 1011.3 0.0
23/06:30pm 20.8 19.2 8.8 46 6.3 N 7 15 4 8 1011.8 1011.7 0.0
23/06:00pm 21.1 19.5 8.7 45 6.6 N 7 15 4 8 1012.1 1012.0 0.0
23/05:30pm 21.7 19.7 8.6 43 6.9 N 9 15 5 8 1012.3 1012.2 0.0
23/05:00pm 22.6 19.5 7.2 37 8.0 N 13 19 7 10 1012.7 1012.6 0.0
23/04:30pm 23.1 19.0 6.4 34 8.6 N 17 28 9 15 1013.0 1012.9 0.0
23/04:00pm 23.2 19.7 7.3 36 8.3 N 15 26 8 14 1013.4 1013.3 0.0
23/03:30pm 23.7 20.0 7.8 36 8.4 N 17 28 9 15 1013.7 1013.6 0.0
23/03:00pm 23.7 19.4 7.8 36 8.4 NNW 20 32 11 17 1014.1 1014.0 0.0
23/02:30pm 23.9 19.5 7.5 35 8.6 NNW 20 32 11 17 1014.4 1014.3 0.0
23/02:00pm 24.4 20.6 7.5 34 8.9 N 17 30 9 16 1014.9 1014.8 0.0
23/01:30pm 24.2 20.2 8.2 36 8.5 N 19 33 10 18 1015.4 1015.3 0.0
23/01:00pm 23.8 20.0 9.0 39 8.0 NNW 19 33 10 18 1016.2 1016.1 0.0
23/12:30pm 23.3 18.7 8.2 38 8.0 N 22 37 12 20 1017.0 1016.9 0.0
23/12:00pm 22.8 18.0 7.4 37 8.0 N 22 35 12 19 1017.7 1017.6 0.0
23/11:30am 22.6 17.8 7.2 37 8.0 NNW 22 39 12 21 1018.3 1018.2 0.0
23/11:00am 21.8 17.3 6.9 38 7.6 N 20 35 11 19 1018.8 1018.7 0.0
23/10:30am 21.1 16.9 7.3 41 7.1 NNW 19 32 10 17 1019.4 1019.4 0.0
23/10:00am 19.2 16.4 7.0 45 6.1 N 11 20 6 11 1019.9 1019.9 0.0
23/09:30am 18.1 15.2 6.3 46 5.8 NNW 11 17 6 9 1020.4 1020.4 0.0
23/09:00am 17.0 15.2 7.1 52 4.9 NNW 6 11 3 6 1020.7 1020.7 0.0
23/08:30am 15.8 14.0 7.1 56 4.3 NW 6 9 3 5 1021.0 1021.0 0.0
23/08:00am 12.7 11.4 6.1 64 3.1 NW 2 6 1 3 1020.8 1020.8 0.0
23/07:30am 11.5 10.4 4.9 64 3.0 CALM 0 0 0 0 1020.5 1020.5 0.0
23/07:00am 11.9 10.3 4.4 60 3.4 W 2 7 1 4 1020.5 1020.5 0.0
23/06:30am 12.2 11.0 4.4 59 3.5 CALM 0 2 0 1 1020.3 1020.3 0.0
23/06:00am 11.6 10.4 4.6 62 3.2 CALM 0 2 0 1 1020.1 1020.1 0.0
23/05:30am 11.1 9.6 5.0 66 2.8 N 2 6 1 3 1020.3 1020.3 0.0
23/05:00am 11.1 9.9 4.8 65 2.9 CALM 0 6 0 3 1020.3 1020.3 0.0
23/04:30am 11.6 10.4 4.8 63 3.1 CALM 0 0 0 0 1020.3 1020.3 0.0
23/04:00am 12.5 11.3 4.7 59 3.6 CALM 0 0 0 0 1020.2 1020.2 0.0
23/03:30am 11.1 10.0 5.0 66 2.8 CALM 0 0 0 0 1020.2 1020.2 0.0
23/03:00am 11.8 10.8 5.4 65 3.0 CALM 0 0 0 0 1020.6 1020.6 0.0
23/02:30am 11.6 10.7 5.9 68 2.7 CALM 0 2 0 1 1020.8 1020.8 0.0
23/02:00am 12.3 10.6 6.1 66 2.9 WNW 4 4 2 2 1021.1 1021.1 0.0
23/01:30am 11.9 11.1 6.4 69 2.6 CALM 0 0 0 0 1021.2 1021.2 0.0
23/01:00am 12.1 11.2 6.2 67 2.8 CALM 0 0 0 0 1021.4 1021.4 0.0
23/12:30am 11.9 11.1 6.6 70 2.5 CALM 0 4 0 2 1021.6 1021.6 0.0
23/12:00am 12.1 11.3 6.4 68 2.7 CALM 0 0 0 0 1021.9 1021.9 0.0
 
Date/Time
EST
Temp
°C
App
Temp
°C
Dew
Point
°C
Rel
Hum
%
Delta-T
°C
Wind Press
QNH
hPa
Press
MSL
hPa
Rain since
9am
mm
Dir  Spd
km/h
Gust
km/h
Spd
kts
Gust
kts
22/11:30pm 12.7 11.9 6.3 65 3.0 CALM 0 0 0 0 1022.0 1022.0 0.0
22/11:00pm 13.1 12.2 6.2 63 3.3 CALM 0 0 0 0 1022.1 1022.1 0.0
22/10:30pm 13.3 12.4 6.2 62 3.4 CALM 0 0 0 0 1022.3 1022.3 0.0
22/10:00pm 13.1 12.3 6.7 65 3.1 CALM 0 0 0 0 1022.5 1022.5 0.0
22/09:30pm 13.2 12.6 7.2 67 2.9 CALM 0 0 0 0 1022.6 1022.6 0.0
22/09:00pm 13.9 13.2 7.0 63 3.3 CALM 0 0 0 0 1022.5 1022.5 0.0
22/08:30pm 14.6 13.9 6.9 60 3.8 CALM 0 0 0 0 1022.5 1022.5 0.0
22/08:00pm 15.1 14.3 6.7 57 4.1 CALM 0 0 0 0 1022.6 1022.6 0.0
22/07:30pm 15.7 15.0 7.0 56 4.3 CALM 0 2 0 1 1022.8 1022.8 0.0
22/07:00pm 16.2 15.5 6.9 54 4.6 CALM 0 2 0 1 1022.8 1022.8 0.0
22/06:30pm 16.9 16.2 7.0 52 4.9 CALM 0 0 0 0 1022.8 1022.8 0.0
22/06:00pm 18.9 - 6.4 44 6.2 - - - - - 1022.7 1022.7 0.0
22/05:30pm 19.8 - 6.9 43 6.5 - - - - - 1022.6 1022.6 0.0
22/05:00pm 21.9 - 7.7 40 7.4 - - - - - 1022.5 1022.5 0.0
22/04:30pm 22.2 20.6 8.0 40 7.5 NNW 6 9 3 5 1022.6 1022.6 0.0
22/04:00pm 23.1 21.2 6.8 35 8.4 NNW 6 9 3 5 1022.7 1022.7 0.0

Latest Capital City Observations: Canberra | Sydney | Melbourne | Brisbane | Adelaide | Perth | Hobart | Darwin

Other formats

Comma delimited format used in spreadsheet applications
http://www.bom.gov.au/fwo/IDV60901/IDV60901.94876.axf

JavaScript Object Notation format (JSON) in row-major order
http://www.bom.gov.au/fwo/IDV60901/IDV60901.94876.json

Data quality

Most of these data are generated automatically and are frequently updated. Quality checks on data are not normally performed. It is possible for incorrect values to appear. Refer to information at About Latest Weather Observations and please check the disclaimer before using these data.